Flight Track Log - Related Links

Times and Time Zones

All times are in EDT time to prevent confusion due to time zone crossing. See the SWA3294 flight status page for this flight to view local times or setup timezone preferences in your user account.

Time Position Orientation Groundspeed Altitude Reporting Facility
EDT Latitude Longitude Course Direction KTS MPH feet Rate Location/Type
Sat 08:51:41 AM 39.1667 -76.7167 339° North 161 185 1,500  Level Potomac TRACON
Sat 08:52:42 AM 39.1833 -76.7833 288° West 208 239 3,700 2,517 Climbing Potomac TRACON
Sat 08:54:35 AM 39.2250 -76.9231 291° West 243 280 8,800 2,601 Climbing Washington Center
Sat 08:55:35 AM 39.2572 -77.0122 295° West 253 291 11,200 2,650 Climbing Washington Center
Sat 08:56:35 AM 39.2978 -77.1150 297° West 289 333 14,100 2,800 Climbing Washington Center
Sat 08:57:00 AM 39.2278 -77.1639 339° North  Level FlightAware Approximate
Sat 08:57:35 AM 39.3381 -77.2206 296° West 314 361 16,800  Level Washington Center
Sat 08:58:35 AM 39.3950 -77.3211 306° West 334 384 18,700 2,000 Climbing Washington Center
Sat 08:59:35 AM 39.4558 -77.4247 307° West 355 409 20,800 2,550 Climbing Washington Center
Sat 09:00:35 AM 39.5208 -77.5311 308° West 362 417 23,800 2,650 Climbing Washington Center
Sat 09:01:35 AM 39.5839 -77.6325 309° West 368 423 26,100 2,067 Climbing Washington Center
Sat 09:03:35 AM 39.7153 -77.8411 309° West 382 440 30,000 1,300 Climbing Cleveland Center
Sat 09:04:35 AM 39.7781 -77.9439 308° West 371 427 30,000  Level Cleveland Center
Sat 09:05:35 AM 39.8408 -78.0469 308° West 366 421 30,000  Level Cleveland Center
Sat 09:06:35 AM 39.9014 -78.1475 308° West 366 421 30,000  Level Cleveland Center
Sat 09:07:35 AM 39.9661 -78.2508 309° West 366 421 30,000  Level Cleveland Center
Sat 09:08:35 AM 40.0267 -78.3517 308° West 359 413 30,000  Level Cleveland Center
Sat 09:09:35 AM 40.0889 -78.4556 308° West 359 413 30,000  Level Cleveland Center
Sat 09:10:35 AM 40.1492 -78.5567 308° West 364 419 30,000  Level Cleveland Center
Sat 09:11:35 AM 40.2094 -78.6611 307° West 364 419 30,000  Level Cleveland Center
Sat 09:12:35 AM 40.2736 -78.7653 309° West 364 419 30,000  Level Cleveland Center
Sat 09:13:35 AM 40.3378 -78.8725 308° West 364 419 30,000  Level Cleveland Center
Sat 09:14:35 AM 40.3956 -78.9775 306° West 364 419 30,000  Level Cleveland Center
Sat 09:15:35 AM 40.4575 -79.0850 307° West 369 425 30,000  Level Cleveland Center
Sat 09:16:35 AM 40.5172 -79.1931 306° West 369 425 30,000  Level Cleveland Center
Sat 09:17:35 AM 40.5769 -79.3011 306° West 369 425 30,000  Level Cleveland Center
Sat 09:18:35 AM 40.6406 -79.4092 308° West 369 425 30,000  Level Cleveland Center
Sat 09:19:35 AM 40.7000 -79.5150 307° West 369 425 30,000  Level Cleveland Center
Sat 09:20:35 AM 40.7594 -79.6236 306° West 369 425 30,000 -350 Level Cleveland Center
Sat 09:21:35 AM 40.8186 -79.7297 306° West 369 425 29,300 -850 Descending Cleveland Center
Sat 09:22:35 AM 40.8756 -79.8361 305° West 363 418 28,300 -1,050 Descending Cleveland Center
Sat 09:23:35 AM 40.9347 -79.9400 307° West 358 412 27,200 -1,000 Descending Cleveland Center
Sat 09:24:35 AM 40.9914 -80.0467 305° West 358 412 26,300 -950 Descending Cleveland Center
Sat 09:25:35 AM 41.0442 -80.1564 303° West 358 412 25,300 -1,000 Descending Cleveland Center
Sat 09:26:35 AM 41.0967 -80.2664 302° West 358 412 24,300 -1,100 Descending Cleveland Center
Sat 09:27:35 AM 41.1531 -80.3872 302° West 358 412 23,100 -1,100 Descending Cleveland Center
Sat 09:28:35 AM 41.2033 -80.4947 302° West 350 403 22,100 -1,000 Descending Cleveland Center
Sat 09:29:35 AM 41.2511 -80.5969 302° West 335 386 21,100 -1,100 Descending Cleveland Center
Sat 09:30:35 AM 41.2950 -80.6853 303° West 328 377 19,900 -1,650 Descending Cleveland Center
Sat 09:31:35 AM 41.3386 -80.7850 300° West 317 365 17,800 -2,050 Descending Cleveland Center
Sat 09:32:35 AM 41.3800 -80.8764 301° West 306 352 15,800 -2,054 Descending Cleveland Center
Sat 09:33:26 AM 41.4194 -80.9569 303° West 281 323 14,000 -1,850 Descending Cleveland Center
Sat 09:34:35 AM 41.4628 -81.0458 303° West 271 312 12,100 -1,714 Descending Cleveland Center
Sat 09:35:39 AM 41.4750 -81.1567 278° West 245 282 10,200 -1,050 Descending Cleveland Center
Sat 09:36:35 AM 41.4828 -81.2289 278° West 250 288 10,000 -776 Descending Cleveland Center
Sat 09:37:35 AM 41.4906 -81.3178 277° West 250 288 8,700 -1,650 Descending Cleveland Center
Sat 09:38:35 AM 41.4983 -81.4092 277° West 250 288 6,700 -2,000 Descending Cleveland Center
Sat 09:39:35 AM 41.5061 -81.5036 276° West 244 281 4,700 -1,350 Descending Cleveland Center
Sat 09:40:35 AM 41.5117 -81.5842 275° West 232 267 4,000 -700 Descending Cleveland Center
Sat 09:41:35 AM 41.5192 -81.6564 278° West 218 251 3,300 -500 Descending Cleveland Center
Sat 09:42:35 AM 41.5019 -81.7144 248° West 191 220 3,000 -390 Descending Cleveland Center
Sat 09:43:38 AM 41.4703 -81.7636 229° Southwest 150 173 2,500 -537 Descending Cleveland Center
Sat 09:44:38 AM 41.4450 -81.7992 227° Southwest 119 137 1,900 -645 Descending Cleveland Center
Sat 09:45:39 AM 41.4217 -81.8347 229° Southwest 120 138 1,200 -689 Descending Cleveland Center
Sat 09:47:00 AM 41.4000 -81.8500 252° West  Level FlightAware Approximate
Sat 09:54:00 AM 41.4094 -81.8547 252° West  Level Estimated

Login

Don't have an account? Register now (free) for customized features, flight alerts, and more!